createdAt,value
2017-09-11T03:31:04.435Z,64.50
2017-09-11T03:33:32.037Z,64.40
2017-09-11T03:36:00.533Z,64.30
2017-09-11T03:38:28.925Z,64.70
2017-09-11T03:40:56.536Z,64.60
2017-09-11T03:43:24.642Z,64.80
2017-09-11T03:45:52.287Z,64.80
2017-09-11T03:48:19.948Z,65.10
2017-09-11T03:50:48.387Z,65.30
2017-09-11T03:53:15.993Z,65.30
2017-09-11T03:55:44.054Z,65.20
2017-09-11T03:58:12.425Z,64.50
2017-09-11T04:00:40.023Z,64.10
2017-09-11T04:03:08.408Z,64.90
2017-09-11T04:05:36.786Z,64.60
2017-09-11T04:08:04.902Z,64.50
2017-09-11T04:10:32.550Z,64.50
2017-09-11T04:13:00.169Z,64.80
2017-09-11T04:15:29.100Z,65.00
2017-09-11T04:17:56.697Z,65.00
2017-09-11T04:20:24.496Z,65.30
2017-09-11T04:22:52.125Z,65.80
2017-09-11T04:25:19.725Z,66.20
2017-09-11T04:27:47.701Z,65.90
2017-09-11T04:30:15.304Z,66.10
2017-09-11T04:32:42.913Z,65.90
2017-09-11T04:35:11.761Z,64.80
2017-09-11T04:37:39.379Z,64.70
2017-09-11T04:40:06.980Z,65.50
2017-09-11T04:42:34.612Z,66.20
2017-09-11T04:45:02.222Z,66.90
2017-09-11T04:47:30.990Z,66.70
2017-09-11T04:49:58.592Z,66.60
2017-09-11T04:52:26.180Z,66.80
2017-09-11T04:54:53.806Z,66.40
2017-09-11T04:57:21.409Z,66.30
2017-09-11T04:59:49.405Z,66.10
2017-09-11T05:02:17.026Z,66.20
2017-09-11T05:04:44.620Z,66.20
2017-09-11T05:07:12.250Z,66.40
2017-09-11T05:09:39.843Z,66.40
2017-09-11T05:12:07.921Z,66.50
2017-09-11T05:14:36.303Z,66.70
2017-09-11T05:17:03.948Z,66.60
2017-09-11T05:19:31.932Z,66.60
2017-09-11T05:21:59.518Z,66.90
2017-09-11T05:24:27.905Z,66.40
2017-09-11T05:26:55.928Z,67.10
2017-09-11T05:29:24.292Z,65.80
2017-09-11T05:31:51.881Z,65.80
2017-09-11T05:34:19.843Z,65.40
2017-09-11T05:36:47.453Z,64.80
2017-09-11T05:39:15.077Z,64.40
2017-09-11T05:41:42.819Z,63.60
2017-09-11T05:44:10.414Z,63.90
2017-09-11T05:46:39.176Z,63.30
2017-09-11T05:49:06.780Z,63.20
2017-09-11T05:51:34.386Z,63.10
2017-09-11T05:54:02.060Z,63.20
2017-09-11T05:56:29.805Z,63.20
2017-09-11T05:58:57.790Z,63.20
2017-09-11T06:01:25.393Z,64.80
2017-09-11T06:03:53.004Z,65.40
2017-09-11T06:06:21.799Z,65.40
2017-09-11T06:08:49.399Z,65.30
2017-09-11T06:11:17.809Z,66.40
2017-09-11T06:13:45.814Z,66.40
2017-09-11T06:16:13.395Z,66.80
2017-09-11T06:18:41.752Z,64.90
2017-09-11T06:21:09.885Z,64.80
2017-09-11T06:23:37.499Z,64.80
2017-09-11T06:26:05.872Z,66.50
2017-09-11T06:28:33.864Z,66.50
2017-09-11T06:31:02.216Z,67.00
2017-09-11T06:33:29.821Z,67.00
2017-09-11T06:35:57.837Z,67.60
2017-09-11T06:38:25.446Z,66.50
2017-09-11T06:40:53.042Z,65.80
2017-09-11T06:43:20.666Z,66.00
2017-09-11T06:45:48.267Z,66.50
2017-09-11T06:48:16.272Z,65.60
2017-09-11T06:50:44.634Z,66.90
2017-09-11T06:53:13.045Z,65.70
2017-09-11T06:55:41.775Z,65.40
2017-09-11T06:58:09.373Z,65.50
2017-09-11T07:00:36.969Z,65.10
2017-09-11T07:03:04.610Z,65.80
2017-09-11T07:05:33.017Z,65.60
2017-09-11T07:08:01.028Z,65.60
2017-09-11T07:10:28.635Z,64.50
2017-09-11T07:13:08.637Z,63.50
2017-09-11T07:15:36.256Z,63.00
2017-09-11T07:18:03.892Z,63.10
2017-09-11T07:20:31.508Z,62.60
2017-09-11T07:22:59.092Z,63.60
2017-09-11T07:25:27.183Z,63.30
2017-09-11T07:27:55.551Z,64.10
2017-09-11T07:30:23.912Z,63.40
2017-09-11T07:32:51.906Z,63.40
2017-09-11T07:35:20.309Z,62.10
2017-09-11T07:37:47.921Z,62.00
2017-09-11T07:40:15.988Z,62.40
2017-09-11T07:42:43.605Z,60.90
2017-09-11T07:45:11.196Z,62.40
2017-09-11T07:47:38.935Z,63.30
2017-09-11T07:50:06.536Z,61.60
2017-09-11T07:52:34.137Z,60.90
2017-09-11T07:55:02.103Z,60.50
2017-09-11T07:57:29.709Z,60.40
2017-09-11T07:59:57.311Z,60.60
2017-09-11T08:02:25.353Z,61.00
2017-09-11T08:04:53.054Z,61.40
2017-09-11T08:07:20.682Z,61.40
2017-09-11T08:09:48.304Z,62.50
2017-09-11T08:12:15.914Z,61.80
2017-09-11T08:14:43.866Z,60.60
2017-09-11T08:17:11.465Z,61.40
2017-09-11T08:19:39.895Z,58.90
2017-09-11T08:22:07.881Z,58.80
2017-09-11T08:24:35.480Z,59.20
2017-09-11T08:27:03.134Z,58.90
2017-09-11T08:29:31.549Z,61.20
2017-09-11T08:31:59.165Z,61.20
2017-09-11T08:34:27.904Z,61.70
2017-09-11T08:36:55.505Z,61.50
2017-09-11T08:39:23.886Z,60.40
2017-09-11T08:41:52.260Z,60.00
2017-09-11T08:44:20.630Z,62.30
2017-09-11T08:46:48.636Z,61.40
2017-09-11T08:49:16.250Z,58.30
2017-09-11T08:51:43.857Z,58.80
2017-09-11T08:54:11.505Z,59.00
2017-09-11T08:56:39.100Z,56.80
2017-09-11T08:59:07.218Z,57.20
2017-09-11T09:01:35.614Z,57.40
2017-09-11T09:04:03.978Z,59.00
2017-09-11T09:06:32.359Z,58.80
2017-09-11T09:09:00.772Z,57.60
2017-09-11T09:11:28.754Z,57.20
2017-09-11T09:13:56.357Z,57.20
2017-09-11T09:16:23.970Z,57.80
2017-09-11T09:18:51.580Z,57.80
2017-09-11T09:21:19.230Z,57.30
2017-09-11T09:23:47.198Z,57.40
2017-09-11T09:26:14.807Z,55.60
2017-09-11T09:28:42.408Z,55.80
2017-09-11T09:31:10.036Z,55.30
2017-09-11T09:33:37.683Z,55.40
2017-09-11T09:36:06.434Z,55.00
2017-09-11T09:38:34.044Z,54.90
2017-09-11T09:41:01.643Z,53.40
2017-09-11T09:43:29.354Z,53.20
2017-09-11T09:45:57.724Z,51.50
2017-09-11T09:48:26.490Z,51.20
2017-09-11T09:50:54.522Z,51.20
2017-09-11T09:53:22.129Z,50.40
2017-09-11T09:55:49.757Z,51.80
2017-09-11T09:58:17.369Z,50.90
2017-09-11T10:00:46.123Z,49.30
2017-09-11T10:03:13.734Z,49.30
2017-09-11T10:05:41.338Z,49.70
2017-09-11T10:08:08.960Z,48.90
2017-09-11T10:10:36.561Z,47.60
2017-09-11T10:13:04.641Z,46.50
2017-09-11T10:15:32.259Z,43.60
2017-09-11T10:17:59.869Z,41.50
2017-09-11T10:20:27.483Z,35.70
2017-09-11T10:22:55.067Z,33.90
2017-09-11T10:25:23.074Z,30.10
2017-09-11T10:27:51.456Z,30.80
2017-09-11T10:30:19.838Z,31.30
2017-09-11T10:32:48.228Z,29.50
2017-09-11T10:35:16.124Z,29.50
2017-09-11T10:37:44.140Z,30.60
2017-09-11T10:40:12.510Z,33.30
2017-09-11T10:42:40.137Z,34.00
2017-09-11T10:45:08.124Z,34.00
2017-09-11T10:47:35.718Z,36.10
2017-09-11T10:50:04.105Z,43.10
2017-09-11T10:52:32.504Z,44.60
2017-09-11T10:55:00.118Z,44.50
2017-09-11T10:57:28.097Z,45.00
2017-09-11T10:59:56.468Z,47.40
2017-09-11T11:02:24.070Z,47.30
2017-09-11T11:04:53.229Z,47.30
2017-09-11T11:07:20.862Z,46.50
2017-09-11T11:09:48.503Z,44.40
2017-09-11T11:12:16.473Z,44.10
2017-09-11T11:14:44.136Z,44.40
2017-09-11T11:17:11.739Z,44.10
2017-09-11T11:19:39.362Z,44.00
2017-09-11T11:22:06.975Z,44.30
2017-09-11T11:24:35.649Z,43.10
2017-09-11T11:27:03.256Z,43.00
2017-09-11T11:29:30.859Z,44.50
2017-09-11T11:31:58.482Z,45.40
2017-09-11T11:34:26.081Z,45.20
2017-09-11T11:36:54.066Z,46.60
2017-09-11T11:39:22.439Z,47.90
2017-09-11T11:41:50.137Z,47.90
2017-09-11T11:44:18.013Z,46.90
2017-09-11T11:46:45.657Z,40.00
2017-09-11T11:49:13.257Z,30.40
2017-09-11T11:51:41.249Z,29.50
2017-09-11T11:54:09.004Z,28.60
2017-09-11T11:56:36.664Z,27.80
2017-09-11T11:59:05.352Z,31.60
2017-09-11T12:01:32.958Z,35.20
2017-09-11T12:04:00.597Z,36.60
2017-09-11T12:06:28.980Z,29.90
2017-09-11T12:08:57.357Z,30.50
2017-09-11T12:11:25.720Z,30.00
2017-09-11T12:13:53.339Z,29.80
2017-09-11T12:16:20.940Z,35.20
2017-09-11T12:18:48.869Z,37.40
2017-09-11T12:21:16.477Z,40.70
2017-09-11T12:23:44.086Z,41.70
2017-09-11T12:26:12.105Z,42.80
2017-09-11T12:28:39.750Z,45.10
2017-09-11T12:31:07.359Z,45.40
2017-09-11T12:33:35.405Z,45.80
2017-09-11T12:36:03.769Z,46.60
2017-09-11T12:38:31.392Z,46.20
2017-09-11T12:40:59.056Z,46.70
2017-09-11T12:43:26.670Z,46.10
2017-09-11T12:45:55.359Z,46.30
2017-09-11T12:48:23.748Z,47.90
2017-09-11T12:50:52.114Z,47.10
2017-09-11T12:53:20.160Z,47.10
2017-09-11T12:55:47.766Z,46.60
2017-09-11T12:58:15.373Z,46.80
2017-09-11T13:00:42.992Z,46.60
2017-09-11T13:03:10.666Z,47.10
2017-09-11T13:05:38.634Z,46.00
2017-09-11T13:08:06.310Z,45.20
2017-09-11T13:10:34.745Z,43.50
2017-09-11T13:13:03.147Z,44.00
2017-09-11T13:15:30.798Z,43.90
2017-09-11T13:17:58.842Z,45.30
2017-09-11T13:20:27.254Z,45.20
2017-09-11T13:22:55.053Z,45.00
2017-09-11T13:25:23.066Z,43.80
2017-09-11T13:27:51.633Z,43.40
2017-09-11T13:30:20.026Z,44.00
2017-09-11T13:32:47.645Z,43.50
2017-09-11T13:35:15.249Z,43.40
2017-09-11T13:37:43.201Z,43.30
2017-09-11T13:40:10.827Z,45.20
2017-09-11T13:42:38.473Z,43.70
2017-09-11T13:45:06.113Z,44.30
2017-09-11T13:47:33.737Z,44.40
2017-09-11T13:50:01.722Z,45.30
2017-09-11T13:52:29.401Z,44.30
2017-09-11T13:54:57.050Z,43.80
2017-09-11T13:57:24.670Z,44.30
2017-09-11T13:59:52.300Z,43.60
2017-09-11T14:02:20.287Z,43.80
2017-09-11T14:04:47.885Z,43.70
2017-09-11T14:07:15.489Z,42.50
2017-09-11T14:09:43.112Z,44.20
2017-09-11T14:12:10.712Z,44.90
2017-09-11T14:14:38.647Z,43.20
2017-09-11T14:17:06.250Z,43.40
2017-09-11T14:19:33.867Z,44.10
2017-09-11T14:22:01.506Z,44.30
2017-09-11T14:24:29.124Z,45.00
2017-09-11T14:26:57.064Z,45.30
2017-09-11T14:29:25.469Z,45.90
2017-09-11T14:31:53.080Z,45.60
2017-09-11T14:34:20.714Z,45.70
2017-09-11T14:36:48.321Z,46.40
2017-09-11T14:39:16.230Z,46.00
2017-09-11T14:41:43.826Z,45.20
2017-09-11T14:44:12.200Z,45.70
2017-09-11T14:46:39.810Z,45.50
2017-09-11T14:49:08.197Z,46.10
2017-09-11T14:51:37.534Z,46.10
2017-09-11T14:54:05.213Z,45.70
2017-09-11T14:56:32.817Z,46.00
2017-09-11T14:59:01.193Z,47.10
2017-09-11T15:01:28.795Z,47.10
2017-09-11T15:03:56.670Z,47.50
2017-09-11T15:06:24.286Z,47.40
2017-09-11T15:08:51.902Z,47.00
2017-09-11T15:11:19.980Z,47.20
2017-09-11T15:13:47.583Z,47.40
2017-09-11T15:16:15.186Z,47.80
2017-09-11T15:18:42.810Z,49.30
2017-09-11T15:21:10.435Z,49.00
2017-09-11T15:23:38.387Z,49.40
2017-09-11T15:26:06.005Z,50.40
2017-09-11T15:28:33.633Z,51.10
2017-09-11T15:31:02.125Z,53.40
2017-09-11T15:33:29.754Z,53.30
2017-09-11T15:35:57.649Z,54.30
2017-09-11T15:38:26.026Z,55.60
2017-09-11T15:40:54.412Z,56.10
2017-09-11T15:43:22.822Z,56.90
2017-09-11T15:45:50.422Z,56.90
2017-09-11T15:48:18.401Z,57.40
2017-09-11T15:50:46.010Z,57.80
2017-09-11T15:53:13.637Z,57.80
2017-09-11T15:55:42.027Z,57.90
2017-09-11T15:58:09.636Z,57.90
2017-09-11T16:00:37.568Z,57.50
2017-09-11T16:03:05.182Z,57.20
2017-09-11T16:05:32.785Z,57.40
2017-09-11T16:08:00.402Z,57.70
2017-09-11T16:10:28.018Z,58.00
2017-09-11T16:12:56.951Z,58.30
2017-09-11T16:15:24.581Z,59.70
2017-09-11T16:17:52.209Z,59.10
2017-09-11T16:20:20.202Z,58.90
2017-09-11T16:22:47.896Z,58.80
2017-09-11T16:25:15.512Z,58.00
2017-09-11T16:27:43.517Z,57.40
2017-09-11T16:30:11.134Z,57.60
2017-09-11T16:32:38.760Z,58.90
2017-09-11T16:35:06.456Z,59.30
2017-09-11T16:37:34.836Z,59.40
2017-09-11T16:40:03.752Z,58.10
2017-09-11T16:42:31.409Z,58.20
2017-09-11T16:44:59.035Z,56.90
2017-09-11T16:47:27.429Z,55.40
2017-09-11T16:49:55.036Z,55.40
2017-09-11T16:52:23.021Z,55.40
2017-09-11T16:54:50.619Z,56.20
2017-09-11T16:57:19.226Z,57.20
2017-09-11T16:59:47.343Z,57.10
2017-09-11T17:02:14.968Z,55.20
2017-09-11T17:04:42.585Z,54.90
2017-09-11T17:07:11.361Z,54.40
2017-09-11T17:09:39.050Z,54.40
2017-09-11T17:12:06.694Z,54.70
2017-09-11T17:14:35.104Z,54.50
2017-09-11T17:17:02.714Z,54.50
2017-09-11T17:19:30.690Z,54.20
2017-09-11T17:21:58.310Z,54.10
2017-09-11T17:24:25.938Z,54.20
2017-09-11T17:26:54.619Z,54.20
2017-09-11T17:29:23.003Z,54.60
2017-09-11T17:32:29.129Z,54.60
2017-09-11T17:34:56.733Z,54.60
2017-09-11T17:37:24.339Z,54.60
2017-09-11T17:39:52.440Z,54.20
2017-09-11T17:42:20.051Z,53.80
2017-09-11T17:44:48.334Z,53.60
2017-09-11T17:47:15.954Z,54.00
2017-09-11T17:49:44.346Z,53.70
2017-09-11T17:52:12.003Z,53.70
2017-09-11T17:54:40.410Z,53.90
2017-09-11T17:57:08.349Z,53.80
2017-09-11T17:59:35.982Z,54.30
2017-09-11T18:02:03.597Z,54.00
2017-09-11T18:04:31.233Z,53.60
2017-09-11T18:06:59.637Z,53.30
2017-09-11T18:09:27.347Z,53.30
2017-09-11T18:11:55.317Z,53.40
2017-09-11T18:14:22.934Z,53.00
2017-09-11T18:16:50.557Z,53.00
2017-09-11T18:19:18.955Z,52.50
2017-09-11T18:21:46.601Z,52.50
2017-09-11T18:24:15.471Z,51.90
2017-09-11T18:26:44.622Z,51.40
2017-09-11T18:29:12.266Z,51.40
2017-09-11T18:31:40.241Z,51.50
2017-09-11T18:34:07.880Z,51.70
2017-09-11T18:36:36.307Z,52.00
2017-09-11T18:39:04.265Z,52.00
2017-09-11T18:41:31.913Z,51.90
2017-09-11T18:43:59.721Z,52.50
2017-09-11T18:46:27.428Z,52.30
2017-09-11T18:48:55.056Z,52.20
2017-09-11T18:51:24.014Z,53.00
2017-09-11T18:53:51.633Z,52.90
2017-09-11T18:56:20.855Z,53.10
2017-09-11T18:58:48.521Z,53.10
2017-09-11T19:01:16.357Z,53.10
2017-09-11T19:03:45.070Z,54.20
2017-09-11T19:06:12.706Z,54.10
2017-09-11T19:08:41.115Z,54.10
2017-09-11T19:11:08.779Z,54.00
2017-09-11T19:13:36.394Z,53.70
2017-09-11T19:16:04.471Z,53.80
2017-09-11T19:18:32.902Z,54.20
2017-09-11T19:21:00.534Z,54.10
2017-09-11T19:23:28.315Z,54.30
2017-09-11T19:25:56.571Z,54.60
2017-09-11T19:28:24.649Z,54.70
2017-09-11T19:30:52.275Z,54.70
2017-09-11T19:33:19.953Z,54.80
2017-09-11T19:35:47.642Z,55.20
2017-09-11T19:38:15.285Z,55.30
2017-09-11T19:40:42.912Z,54.80
2017-09-11T19:43:10.588Z,55.10
2017-09-11T19:45:39.005Z,54.70
2017-09-11T19:48:06.650Z,54.70
2017-09-11T19:50:34.272Z,54.70
2017-09-11T19:53:01.902Z,54.70
2017-09-11T19:55:29.907Z,56.20
2017-09-11T19:57:58.058Z,55.20
2017-09-11T20:00:25.671Z,54.70
2017-09-11T20:02:53.606Z,54.30
2017-09-11T20:05:21.226Z,54.00
2017-09-11T20:07:48.842Z,53.80
2017-09-11T20:10:16.785Z,54.00
2017-09-11T20:12:44.388Z,54.50
2017-09-11T20:15:11.995Z,53.90
2017-09-11T20:17:39.611Z,53.90
2017-09-11T20:20:07.985Z,53.40
2017-09-11T20:22:36.756Z,53.60
2017-09-11T20:25:04.376Z,53.60
2017-09-11T20:27:31.999Z,53.00
2017-09-11T20:30:00.417Z,52.70
2017-09-11T20:32:28.035Z,52.70
2017-09-11T20:34:56.803Z,52.80
2017-09-11T20:37:24.405Z,52.70
2017-09-11T20:39:52.052Z,52.80
2017-09-11T20:42:19.675Z,53.10
2017-09-11T20:44:47.256Z,53.00
2017-09-11T20:47:16.002Z,53.30
2017-09-11T20:49:43.607Z,53.30
2017-09-11T20:52:11.994Z,53.30
2017-09-11T20:54:40.385Z,53.50
2017-09-11T20:57:08.003Z,53.50
2017-09-11T20:59:35.990Z,53.30
2017-09-11T21:02:03.588Z,53.20
2017-09-11T21:04:31.201Z,53.50
2017-09-11T21:06:58.821Z,53.10
2017-09-11T21:09:26.425Z,53.60
2017-09-11T21:11:54.817Z,54.80
2017-09-11T21:14:23.194Z,54.30
2017-09-11T21:16:52.411Z,54.50
2017-09-11T21:19:20.007Z,54.40
2017-09-11T21:21:47.613Z,53.60
2017-09-11T21:24:16.014Z,53.40
2017-09-11T21:26:43.618Z,53.30
2017-09-11T21:29:11.597Z,54.20
2017-09-11T21:31:39.203Z,54.70
2017-09-11T21:34:06.801Z,54.80
2017-09-11T21:36:34.794Z,54.60
2017-09-11T21:39:02.410Z,54.50
2017-09-11T21:41:30.004Z,53.30
2017-09-11T21:43:57.632Z,52.60
2017-09-11T21:46:25.237Z,52.30
2017-09-11T21:48:53.206Z,51.70
2017-09-11T21:51:20.822Z,51.70
2017-09-11T21:53:48.422Z,51.60
2017-09-11T21:56:16.074Z,51.90
2017-09-11T21:58:43.699Z,51.90
2017-09-11T22:01:11.712Z,52.40
2017-09-11T22:03:39.323Z,52.40
2017-09-11T22:06:06.921Z,52.90
2017-09-11T22:08:34.903Z,52.50
2017-09-11T22:11:02.513Z,52.30
2017-09-11T22:13:30.869Z,52.40
2017-09-11T22:15:59.558Z,52.50
2017-09-11T22:18:27.933Z,52.80
2017-09-11T22:20:56.306Z,52.70
2017-09-11T22:23:25.006Z,52.60
2017-09-11T22:25:53.378Z,52.80
2017-09-11T22:28:21.753Z,53.60
